sensor_id;sensor_type;location;lat;lon;timestamp;P1;durP1;ratioP1;P2;durP2;ratioP2
22963;SDS011;11648;49.306;6.934;2023-03-16T00:00:46;6.33;;;3.67;;
22963;SDS011;11648;49.306;6.934;2023-03-16T00:03:13;6.83;;;3.83;;
22963;SDS011;11648;49.306;6.934;2023-03-16T00:05:46;5.43;;;3.70;;
22963;SDS011;11648;49.306;6.934;2023-03-16T00:08:14;6.17;;;3.70;;
22963;SDS011;11648;49.306;6.934;2023-03-16T00:10:42;6.03;;;3.77;;
22963;SDS011;11648;49.306;6.934;2023-03-16T00:13:15;8.20;;;3.90;;
22963;SDS011;11648;49.306;6.934;2023-03-16T00:15:50;7.30;;;4.13;;
22963;SDS011;11648;49.306;6.934;2023-03-16T00:18:17;6.47;;;3.43;;
22963;SDS011;11648;49.306;6.934;2023-03-16T00:20:44;6.17;;;3.57;;
22963;SDS011;11648;49.306;6.934;2023-03-16T00:23:15;5.77;;;3.70;;
22963;SDS011;11648;49.306;6.934;2023-03-16T00:25:41;6.80;;;3.53;;
22963;SDS011;11648;49.306;6.934;2023-03-16T00:28:08;7.17;;;4.30;;
22963;SDS011;11648;49.306;6.934;2023-03-16T00:30:34;6.93;;;3.90;;
22963;SDS011;11648;49.306;6.934;2023-03-16T00:33:02;5.80;;;3.90;;
22963;SDS011;11648;49.306;6.934;2023-03-16T00:35:30;6.73;;;3.87;;
22963;SDS011;11648;49.306;6.934;2023-03-16T00:38:00;5.50;;;3.60;;
22963;SDS011;11648;49.306;6.934;2023-03-16T00:40:26;6.00;;;3.80;;
22963;SDS011;11648;49.306;6.934;2023-03-16T00:42:53;6.07;;;3.97;;
22963;SDS011;11648;49.306;6.934;2023-03-16T00:45:20;6.10;;;4.03;;
22963;SDS011;11648;49.306;6.934;2023-03-16T00:47:48;7.23;;;3.77;;
22963;SDS011;11648;49.306;6.934;2023-03-16T00:50:15;5.77;;;3.67;;
22963;SDS011;11648;49.306;6.934;2023-03-16T00:52:42;6.77;;;4.20;;
22963;SDS011;11648;49.306;6.934;2023-03-16T00:55:09;7.17;;;3.97;;
22963;SDS011;11648;49.306;6.934;2023-03-16T00:57:36;5.13;;;3.50;;
22963;SDS011;11648;49.306;6.934;2023-03-16T01:00:03;5.90;;;3.93;;
22963;SDS011;11648;49.306;6.934;2023-03-16T01:02:42;6.87;;;4.10;;
22963;SDS011;11648;49.306;6.934;2023-03-16T01:05:11;9.07;;;4.67;;
22963;SDS011;11648;49.306;6.934;2023-03-16T01:07:39;7.33;;;4.30;;
22963;SDS011;11648;49.306;6.934;2023-03-16T01:10:06;6.77;;;3.87;;
22963;SDS011;11648;49.306;6.934;2023-03-16T01:12:34;8.20;;;4.07;;
22963;SDS011;11648;49.306;6.934;2023-03-16T01:15:01;6.07;;;4.10;;
22963;SDS011;11648;49.306;6.934;2023-03-16T01:17:28;7.97;;;3.90;;
22963;SDS011;11648;49.306;6.934;2023-03-16T01:19:54;6.80;;;3.90;;
22963;SDS011;11648;49.306;6.934;2023-03-16T01:22:21;7.67;;;3.90;;
22963;SDS011;11648;49.306;6.934;2023-03-16T01:24:48;7.57;;;4.03;;
22963;SDS011;11648;49.306;6.934;2023-03-16T01:27:15;6.77;;;3.87;;
22963;SDS011;11648;49.306;6.934;2023-03-16T01:29:41;6.93;;;4.40;;
22963;SDS011;11648;49.306;6.934;2023-03-16T01:32:11;6.17;;;4.10;;
22963;SDS011;11648;49.306;6.934;2023-03-16T01:34:39;5.40;;;3.67;;
22963;SDS011;11648;49.306;6.934;2023-03-16T01:37:06;6.70;;;4.30;;
22963;SDS011;11648;49.306;6.934;2023-03-16T01:39:55;6.77;;;4.13;;
22963;SDS011;11648;49.306;6.934;2023-03-16T01:42:22;6.03;;;3.57;;
22963;SDS011;11648;49.306;6.934;2023-03-16T01:44:54;8.37;;;4.53;;
22963;SDS011;11648;49.306;6.934;2023-03-16T01:47:28;8.60;;;4.30;;
22963;SDS011;11648;49.306;6.934;2023-03-16T01:49:55;7.37;;;4.00;;
22963;SDS011;11648;49.306;6.934;2023-03-16T01:52:27;7.43;;;4.17;;
22963;SDS011;11648;49.306;6.934;2023-03-16T01:55:03;7.03;;;4.43;;
22963;SDS011;11648;49.306;6.934;2023-03-16T01:57:35;6.30;;;3.87;;
22963;SDS011;11648;49.306;6.934;2023-03-16T02:00:09;5.40;;;3.73;;
22963;SDS011;11648;49.306;6.934;2023-03-16T02:03:04;8.13;;;4.97;;
22963;SDS011;11648;49.306;6.934;2023-03-16T02:05:52;6.10;;;4.07;;
22963;SDS011;11648;49.306;6.934;2023-03-16T02:08:24;7.00;;;4.40;;
22963;SDS011;11648;49.306;6.934;2023-03-16T02:10:53;6.13;;;3.90;;
22963;SDS011;11648;49.306;6.934;2023-03-16T02:13:28;6.97;;;3.80;;
22963;SDS011;11648;49.306;6.934;2023-03-16T02:15:59;7.37;;;4.40;;
22963;SDS011;11648;49.306;6.934;2023-03-16T02:18:26;6.17;;;4.07;;
22963;SDS011;11648;49.306;6.934;2023-03-16T02:21:13;7.07;;;4.30;;
22963;SDS011;11648;49.306;6.934;2023-03-16T02:23:51;8.37;;;4.40;;
22963;SDS011;11648;49.306;6.934;2023-03-16T02:29:13;6.67;;;3.83;;
22963;SDS011;11648;49.306;6.934;2023-03-16T02:31:49;8.47;;;4.20;;
22963;SDS011;11648;49.306;6.934;2023-03-16T02:34:17;6.77;;;4.30;;
22963;SDS011;11648;49.306;6.934;2023-03-16T02:36:44;7.30;;;4.70;;
22963;SDS011;11648;49.306;6.934;2023-03-16T02:39:15;8.67;;;4.40;;
22963;SDS011;11648;49.306;6.934;2023-03-16T02:41:44;7.70;;;4.80;;
22963;SDS011;11648;49.306;6.934;2023-03-16T02:44:16;6.70;;;4.80;;
22963;SDS011;11648;49.306;6.934;2023-03-16T02:46:51;7.20;;;4.37;;
22963;SDS011;11648;49.306;6.934;2023-03-16T02:49:24;6.47;;;4.37;;
22963;SDS011;11648;49.306;6.934;2023-03-16T02:51:55;6.80;;;4.83;;
22963;SDS011;11648;49.306;6.934;2023-03-16T02:54:23;6.77;;;4.77;;
22963;SDS011;11648;49.306;6.934;2023-03-16T02:56:50;6.17;;;4.43;;
22963;SDS011;11648;49.306;6.934;2023-03-16T02:59:18;6.60;;;4.50;;
22963;SDS011;11648;49.306;6.934;2023-03-16T03:01:44;7.47;;;4.50;;
22963;SDS011;11648;49.306;6.934;2023-03-16T03:04:11;7.73;;;4.47;;
22963;SDS011;11648;49.306;6.934;2023-03-16T03:06:38;7.90;;;4.70;;
22963;SDS011;11648;49.306;6.934;2023-03-16T03:09:05;6.83;;;4.27;;
22963;SDS011;11648;49.306;6.934;2023-03-16T03:11:33;6.20;;;4.50;;
22963;SDS011;11648;49.306;6.934;2023-03-16T03:13:59;8.43;;;4.87;;
22963;SDS011;11648;49.306;6.934;2023-03-16T03:16:26;6.90;;;4.80;;
22963;SDS011;11648;49.306;6.934;2023-03-16T03:18:55;7.10;;;4.63;;
22963;SDS011;11648;49.306;6.934;2023-03-16T03:21:21;7.00;;;4.80;;
22963;SDS011;11648;49.306;6.934;2023-03-16T03:23:49;6.40;;;4.70;;
22963;SDS011;11648;49.306;6.934;2023-03-16T03:26:17;8.80;;;5.00;;
22963;SDS011;11648;49.306;6.934;2023-03-16T03:28:44;9.70;;;4.97;;
22963;SDS011;11648;49.306;6.934;2023-03-16T03:31:13;7.23;;;4.40;;
22963;SDS011;11648;49.306;6.934;2023-03-16T03:33:41;10.83;;;4.97;;
22963;SDS011;11648;49.306;6.934;2023-03-16T03:36:08;8.10;;;4.60;;
22963;SDS011;11648;49.306;6.934;2023-03-16T03:38:36;8.20;;;4.80;;
22963;SDS011;11648;49.306;6.934;2023-03-16T03:41:05;7.10;;;4.70;;
22963;SDS011;11648;49.306;6.934;2023-03-16T03:43:37;8.53;;;4.70;;
22963;SDS011;11648;49.306;6.934;2023-03-16T03:46:05;7.07;;;5.00;;
22963;SDS011;11648;49.306;6.934;2023-03-16T03:48:33;7.43;;;4.80;;
22963;SDS011;11648;49.306;6.934;2023-03-16T03:51:00;8.57;;;5.10;;
22963;SDS011;11648;49.306;6.934;2023-03-16T03:53:43;7.93;;;4.50;;
22963;SDS011;11648;49.306;6.934;2023-03-16T03:56:26;7.70;;;4.53;;
22963;SDS011;11648;49.306;6.934;2023-03-16T03:58:53;7.27;;;4.67;;
22963;SDS011;11648;49.306;6.934;2023-03-16T04:01:33;6.90;;;4.97;;
22963;SDS011;11648;49.306;6.934;2023-03-16T04:04:00;8.53;;;4.80;;
22963;SDS011;11648;49.306;6.934;2023-03-16T04:06:27;6.90;;;4.50;;
22963;SDS011;11648;49.306;6.934;2023-03-16T04:08:53;7.30;;;4.67;;
22963;SDS011;11648;49.306;6.934;2023-03-16T04:11:24;6.70;;;4.53;;
22963;SDS011;11648;49.306;6.934;2023-03-16T04:13:51;7.03;;;4.67;;
22963;SDS011;11648;49.306;6.934;2023-03-16T04:16:19;7.50;;;4.87;;
22963;SDS011;11648;49.306;6.934;2023-03-16T04:18:49;7.53;;;4.80;;
22963;SDS011;11648;49.306;6.934;2023-03-16T04:21:16;8.10;;;4.93;;
22963;SDS011;11648;49.306;6.934;2023-03-16T04:23:45;7.40;;;5.10;;
22963;SDS011;11648;49.306;6.934;2023-03-16T04:26:13;8.67;;;4.80;;
22963;SDS011;11648;49.306;6.934;2023-03-16T04:28:43;7.87;;;4.77;;
22963;SDS011;11648;49.306;6.934;2023-03-16T04:31:13;6.47;;;4.47;;
22963;SDS011;11648;49.306;6.934;2023-03-16T04:33:42;7.30;;;4.80;;
22963;SDS011;11648;49.306;6.934;2023-03-16T04:36:09;9.10;;;4.87;;
22963;SDS011;11648;49.306;6.934;2023-03-16T04:38:38;7.97;;;4.70;;
22963;SDS011;11648;49.306;6.934;2023-03-16T04:41:05;7.80;;;5.10;;
22963;SDS011;11648;49.306;6.934;2023-03-16T04:43:36;6.60;;;4.80;;
22963;SDS011;11648;49.306;6.934;2023-03-16T04:46:16;7.43;;;5.30;;
22963;SDS011;11648;49.306;6.934;2023-03-16T04:48:43;7.93;;;5.50;;
22963;SDS011;11648;49.306;6.934;2023-03-16T04:51:10;9.80;;;5.60;;
22963;SDS011;11648;49.306;6.934;2023-03-16T04:53:42;7.70;;;5.00;;
22963;SDS011;11648;49.306;6.934;2023-03-16T04:56:17;7.60;;;5.10;;
22963;SDS011;11648;49.306;6.934;2023-03-16T04:58:49;8.03;;;4.97;;
22963;SDS011;11648;49.306;6.934;2023-03-16T05:01:18;10.20;;;5.43;;
22963;SDS011;11648;49.306;6.934;2023-03-16T05:03:46;7.60;;;5.27;;
22963;SDS011;11648;49.306;6.934;2023-03-16T05:06:13;8.87;;;5.43;;
22963;SDS011;11648;49.306;6.934;2023-03-16T05:08:42;8.93;;;5.47;;
22963;SDS011;11648;49.306;6.934;2023-03-16T05:11:08;7.83;;;5.23;;
22963;SDS011;11648;49.306;6.934;2023-03-16T05:13:45;11.73;;;5.70;;
22963;SDS011;11648;49.306;6.934;2023-03-16T05:16:13;9.10;;;5.30;;
22963;SDS011;11648;49.306;6.934;2023-03-16T05:18:40;9.93;;;5.20;;
22963;SDS011;11648;49.306;6.934;2023-03-16T05:21:07;8.03;;;5.67;;
22963;SDS011;11648;49.306;6.934;2023-03-16T05:23:51;9.63;;;5.67;;
22963;SDS011;11648;49.306;6.934;2023-03-16T05:26:18;10.20;;;6.00;;
22963;SDS011;11648;49.306;6.934;2023-03-16T05:28:45;10.03;;;6.10;;
22963;SDS011;11648;49.306;6.934;2023-03-16T05:31:14;9.00;;;5.73;;
22963;SDS011;11648;49.306;6.934;2023-03-16T05:33:46;11.73;;;6.57;;
22963;SDS011;11648;49.306;6.934;2023-03-16T05:36:17;11.23;;;6.10;;
22963;SDS011;11648;49.306;6.934;2023-03-16T05:38:46;9.93;;;5.90;;
22963;SDS011;11648;49.306;6.934;2023-03-16T05:41:22;8.33;;;5.50;;
22963;SDS011;11648;49.306;6.934;2023-03-16T05:43:59;10.60;;;6.80;;
22963;SDS011;11648;49.306;6.934;2023-03-16T05:46:36;9.20;;;6.23;;
22963;SDS011;11648;49.306;6.934;2023-03-16T05:49:04;10.00;;;6.93;;
22963;SDS011;11648;49.306;6.934;2023-03-16T05:51:30;9.03;;;6.47;;
22963;SDS011;11648;49.306;6.934;2023-03-16T05:53:59;11.07;;;6.73;;
22963;SDS011;11648;49.306;6.934;2023-03-16T05:56:32;8.73;;;6.20;;
22963;SDS011;11648;49.306;6.934;2023-03-16T05:59:00;10.00;;;6.80;;
22963;SDS011;11648;49.306;6.934;2023-03-16T06:01:28;9.37;;;6.40;;
22963;SDS011;11648;49.306;6.934;2023-03-16T06:03:54;10.93;;;6.43;;
22963;SDS011;11648;49.306;6.934;2023-03-16T06:06:24;9.77;;;6.43;;
22963;SDS011;11648;49.306;6.934;2023-03-16T06:08:57;9.77;;;6.43;;
22963;SDS011;11648;49.306;6.934;2023-03-16T06:11:25;8.90;;;6.07;;
22963;SDS011;11648;49.306;6.934;2023-03-16T06:13:52;8.60;;;6.10;;
22963;SDS011;11648;49.306;6.934;2023-03-16T06:16:19;10.73;;;6.23;;
22963;SDS011;11648;49.306;6.934;2023-03-16T06:18:46;9.63;;;6.43;;
22963;SDS011;11648;49.306;6.934;2023-03-16T06:21:12;9.53;;;6.10;;
22963;SDS011;11648;49.306;6.934;2023-03-16T06:23:40;8.73;;;6.27;;
22963;SDS011;11648;49.306;6.934;2023-03-16T06:26:07;12.23;;;6.67;;
22963;SDS011;11648;49.306;6.934;2023-03-16T06:28:36;8.17;;;5.93;;
22963;SDS011;11648;49.306;6.934;2023-03-16T06:31:03;8.33;;;5.93;;
22963;SDS011;11648;49.306;6.934;2023-03-16T06:33:33;8.73;;;5.60;;
22963;SDS011;11648;49.306;6.934;2023-03-16T06:36:01;9.53;;;5.70;;
22963;SDS011;11648;49.306;6.934;2023-03-16T06:38:32;8.80;;;5.60;;
22963;SDS011;11648;49.306;6.934;2023-03-16T06:41:07;8.87;;;5.43;;
22963;SDS011;11648;49.306;6.934;2023-03-16T06:43:34;7.20;;;5.67;;
22963;SDS011;11648;49.306;6.934;2023-03-16T06:46:02;8.57;;;5.10;;
22963;SDS011;11648;49.306;6.934;2023-03-16T06:48:29;7.50;;;5.00;;
22963;SDS011;11648;49.306;6.934;2023-03-16T06:50:56;8.03;;;5.60;;
22963;SDS011;11648;49.306;6.934;2023-03-16T06:53:26;6.53;;;4.50;;
22963;SDS011;11648;49.306;6.934;2023-03-16T06:55:54;6.23;;;4.83;;
22963;SDS011;11648;49.306;6.934;2023-03-16T06:58:21;6.73;;;4.50;;
22963;SDS011;11648;49.306;6.934;2023-03-16T07:00:48;6.97;;;4.30;;
22963;SDS011;11648;49.306;6.934;2023-03-16T07:03:14;5.80;;;4.17;;
22963;SDS011;11648;49.306;6.934;2023-03-16T07:05:46;6.27;;;4.60;;
22963;SDS011;11648;49.306;6.934;2023-03-16T07:08:13;7.03;;;4.23;;
22963;SDS011;11648;49.306;6.934;2023-03-16T07:10:40;5.13;;;3.67;;
22963;SDS011;11648;49.306;6.934;2023-03-16T07:13:07;4.97;;;3.80;;
22963;SDS011;11648;49.306;6.934;2023-03-16T07:15:34;4.80;;;3.93;;
22963;SDS011;11648;49.306;6.934;2023-03-16T07:18:01;5.67;;;3.80;;
22963;SDS011;11648;49.306;6.934;2023-03-16T07:20:28;5.37;;;3.10;;
22963;SDS011;11648;49.306;6.934;2023-03-16T07:22:59;5.50;;;3.77;;
22963;SDS011;11648;49.306;6.934;2023-03-16T07:25:26;5.20;;;3.30;;
22963;SDS011;11648;49.306;6.934;2023-03-16T07:27:53;4.80;;;3.33;;
22963;SDS011;11648;49.306;6.934;2023-03-16T07:30:26;5.63;;;3.80;;
22963;SDS011;11648;49.306;6.934;2023-03-16T07:32:53;7.83;;;3.63;;
22963;SDS011;11648;49.306;6.934;2023-03-16T07:35:22;5.53;;;3.40;;
22963;SDS011;11648;49.306;6.934;2023-03-16T07:37:49;4.57;;;3.67;;
22963;SDS011;11648;49.306;6.934;2023-03-16T07:40:17;8.07;;;3.40;;
22963;SDS011;11648;49.306;6.934;2023-03-16T07:42:44;6.13;;;3.27;;
22963;SDS011;11648;49.306;6.934;2023-03-16T07:45:24;4.57;;;3.23;;
22963;SDS011;11648;49.306;6.934;2023-03-16T07:47:51;4.37;;;2.97;;
22963;SDS011;11648;49.306;6.934;2023-03-16T07:50:30;4.17;;;3.10;;
22963;SDS011;11648;49.306;6.934;2023-03-16T07:52:57;4.27;;;3.10;;
22963;SDS011;11648;49.306;6.934;2023-03-16T07:55:24;5.20;;;3.20;;
22963;SDS011;11648;49.306;6.934;2023-03-16T07:57:52;5.60;;;3.53;;
22963;SDS011;11648;49.306;6.934;2023-03-16T08:00:26;5.30;;;3.30;;
22963;SDS011;11648;49.306;6.934;2023-03-16T08:02:53;5.00;;;3.13;;
22963;SDS011;11648;49.306;6.934;2023-03-16T08:05:21;5.27;;;3.07;;
22963;SDS011;11648;49.306;6.934;2023-03-16T08:07:55;4.40;;;3.13;;
22963;SDS011;11648;49.306;6.934;2023-03-16T08:10:24;4.10;;;2.80;;
22963;SDS011;11648;49.306;6.934;2023-03-16T08:12:59;3.60;;;2.50;;
22963;SDS011;11648;49.306;6.934;2023-03-16T08:15:26;3.90;;;2.63;;
22963;SDS011;11648;49.306;6.934;2023-03-16T08:17:59;5.00;;;2.83;;
22963;SDS011;11648;49.306;6.934;2023-03-16T08:20:28;4.47;;;2.90;;
22963;SDS011;11648;49.306;6.934;2023-03-16T08:22:56;4.90;;;2.93;;
22963;SDS011;11648;49.306;6.934;2023-03-16T08:25:26;6.97;;;3.10;;
22963;SDS011;11648;49.306;6.934;2023-03-16T08:28:02;5.07;;;2.70;;
22963;SDS011;11648;49.306;6.934;2023-03-16T08:30:29;3.70;;;2.40;;
22963;SDS011;11648;49.306;6.934;2023-03-16T08:33:11;6.10;;;2.50;;
22963;SDS011;11648;49.306;6.934;2023-03-16T08:35:40;4.07;;;2.40;;
22963;SDS011;11648;49.306;6.934;2023-03-16T08:38:10;3.53;;;2.30;;
22963;SDS011;11648;49.306;6.934;2023-03-16T08:40:39;3.77;;;2.23;;
22963;SDS011;11648;49.306;6.934;2023-03-16T08:43:15;5.40;;;2.57;;
22963;SDS011;11648;49.306;6.934;2023-03-16T08:45:44;4.10;;;2.20;;
22963;SDS011;11648;49.306;6.934;2023-03-16T08:48:13;5.20;;;2.60;;
22963;SDS011;11648;49.306;6.934;2023-03-16T08:50:43;3.67;;;2.40;;
22963;SDS011;11648;49.306;6.934;2023-03-16T08:53:10;3.27;;;2.03;;
22963;SDS011;11648;49.306;6.934;2023-03-16T08:55:39;4.73;;;2.20;;
22963;SDS011;11648;49.306;6.934;2023-03-16T08:58:09;3.90;;;2.13;;
22963;SDS011;11648;49.306;6.934;2023-03-16T09:00:37;3.73;;;2.10;;
22963;SDS011;11648;49.306;6.934;2023-03-16T09:03:05;4.03;;;2.00;;
22963;SDS011;11648;49.306;6.934;2023-03-16T09:05:32;4.70;;;2.30;;
22963;SDS011;11648;49.306;6.934;2023-03-16T09:07:59;5.90;;;2.10;;
22963;SDS011;11648;49.306;6.934;2023-03-16T09:10:26;3.88;;;2.00;;
22963;SDS011;11648;49.306;6.934;2023-03-16T09:12:54;3.22;;;2.10;;
22963;SDS011;11648;49.306;6.934;2023-03-16T09:15:21;3.90;;;2.03;;
22963;SDS011;11648;49.306;6.934;2023-03-16T09:17:48;5.07;;;2.30;;
22963;SDS011;11648;49.306;6.934;2023-03-16T09:20:16;3.47;;;2.03;;
22963;SDS011;11648;49.306;6.934;2023-03-16T09:22:51;4.97;;;2.13;;
22963;SDS011;11648;49.306;6.934;2023-03-16T09:25:18;3.78;;;2.30;;
22963;SDS011;11648;49.306;6.934;2023-03-16T09:27:45;4.10;;;2.00;;
22963;SDS011;11648;49.306;6.934;2023-03-16T09:30:12;3.20;;;2.00;;
22963;SDS011;11648;49.306;6.934;2023-03-16T09:32:39;4.13;;;2.00;;
22963;SDS011;11648;49.306;6.934;2023-03-16T09:35:06;4.53;;;2.25;;
22963;SDS011;11648;49.306;6.934;2023-03-16T09:37:34;3.60;;;1.80;;
22963;SDS011;11648;49.306;6.934;2023-03-16T09:40:16;3.80;;;2.10;;
22963;SDS011;11648;49.306;6.934;2023-03-16T09:45:58;4.10;;;2.03;;
22963;SDS011;11648;49.306;6.934;2023-03-16T09:48:39;3.83;;;2.10;;
22963;SDS011;11648;49.306;6.934;2023-03-16T09:51:07;3.53;;;1.88;;
22963;SDS011;11648;49.306;6.934;2023-03-16T09:53:44;3.53;;;1.77;;
22963;SDS011;11648;49.306;6.934;2023-03-16T10:05:28;2.80;;;1.27;;
22963;SDS011;11648;49.306;6.934;2023-03-16T10:11:48;3.60;;;1.50;;
22963;SDS011;11648;49.306;6.934;2023-03-16T10:14:39;4.00;;;1.45;;
22963;SDS011;11648;49.306;6.934;2023-03-16T10:17:12;4.03;;;1.30;;
22963;SDS011;11648;49.306;6.934;2023-03-16T10:20:02;2.65;;;1.10;;
22963;SDS011;11648;49.306;6.934;2023-03-16T10:22:36;1.98;;;0.90;;
22963;SDS011;11648;49.306;6.934;2023-03-16T10:27:52;2.55;;;1.00;;
22963;SDS011;11648;49.306;6.934;2023-03-16T10:30:32;3.58;;;1.15;;
22963;SDS011;11648;49.306;6.934;2023-03-16T10:38:27;2.60;;;1.15;;
22963;SDS011;11648;49.306;6.934;2023-03-16T10:40:54;2.58;;;1.00;;
22963;SDS011;11648;49.306;6.934;2023-03-16T10:43:23;2.65;;;1.10;;
22963;SDS011;11648;49.306;6.934;2023-03-16T10:45:50;2.35;;;0.90;;
22963;SDS011;11648;49.306;6.934;2023-03-16T10:48:18;3.08;;;1.10;;
22963;SDS011;11648;49.306;6.934;2023-03-16T10:50:50;2.17;;;1.00;;
22963;SDS011;11648;49.306;6.934;2023-03-16T10:53:21;2.42;;;1.00;;
22963;SDS011;11648;49.306;6.934;2023-03-16T10:55:58;2.45;;;1.00;;
22963;SDS011;11648;49.306;6.934;2023-03-16T10:58:31;2.13;;;1.00;;
22963;SDS011;11648;49.306;6.934;2023-03-16T11:01:24;2.53;;;1.13;;
22963;SDS011;11648;49.306;6.934;2023-03-16T11:03:53;2.58;;;1.23;;
22963;SDS011;11648;49.306;6.934;2023-03-16T11:06:26;2.40;;;1.13;;
22963;SDS011;11648;49.306;6.934;2023-03-16T11:09:09;2.42;;;0.90;;
22963;SDS011;11648;49.306;6.934;2023-03-16T11:11:39;3.83;;;1.08;;
22963;SDS011;11648;49.306;6.934;2023-03-16T11:14:14;2.55;;;1.02;;
22963;SDS011;11648;49.306;6.934;2023-03-16T11:16:48;2.90;;;1.15;;
22963;SDS011;11648;49.306;6.934;2023-03-16T11:21:51;2.15;;;0.90;;
22963;SDS011;11648;49.306;6.934;2023-03-16T11:27:03;2.33;;;0.80;;
22963;SDS011;11648;49.306;6.934;2023-03-16T11:29:44;1.70;;;0.88;;
22963;SDS011;11648;49.306;6.934;2023-03-16T11:32:21;2.47;;;1.08;;
22963;SDS011;11648;49.306;6.934;2023-03-16T11:34:53;2.85;;;1.20;;
22963;SDS011;11648;49.306;6.934;2023-03-16T11:37:30;1.73;;;0.95;;
22963;SDS011;11648;49.306;6.934;2023-03-16T11:40:19;2.95;;;1.20;;
22963;SDS011;11648;49.306;6.934;2023-03-16T11:49:00;2.65;;;1.10;;
22963;SDS011;11648;49.306;6.934;2023-03-16T11:51:47;2.17;;;0.90;;
22963;SDS011;11648;49.306;6.934;2023-03-16T12:02:53;1.90;;;1.00;;
22963;SDS011;11648;49.306;6.934;2023-03-16T12:09:12;2.40;;;0.80;;
22963;SDS011;11648;49.306;6.934;2023-03-16T12:14:31;2.22;;;0.95;;
22963;SDS011;11648;49.306;6.934;2023-03-16T12:17:02;2.40;;;0.98;;
22963;SDS011;11648;49.306;6.934;2023-03-16T12:19:40;2.40;;;0.90;;
22963;SDS011;11648;49.306;6.934;2023-03-16T12:25:20;2.58;;;1.00;;
22963;SDS011;11648;49.306;6.934;2023-03-16T12:27:51;2.33;;;0.90;;
22963;SDS011;11648;49.306;6.934;2023-03-16T12:33:46;2.50;;;0.95;;
22963;SDS011;11648;49.306;6.934;2023-03-16T12:42:21;2.28;;;0.73;;
22963;SDS011;11648;49.306;6.934;2023-03-16T12:44:53;2.00;;;0.85;;
22963;SDS011;11648;49.306;6.934;2023-03-16T12:47:31;3.30;;;0.97;;
22963;SDS011;11648;49.306;6.934;2023-03-16T12:50:03;2.07;;;1.10;;
22963;SDS011;11648;49.306;6.934;2023-03-16T12:58:04;2.50;;;0.80;;
22963;SDS011;11648;49.306;6.934;2023-03-16T13:00:33;2.03;;;0.80;;
22963;SDS011;11648;49.306;6.934;2023-03-16T13:03:03;2.57;;;0.90;;
22963;SDS011;11648;49.306;6.934;2023-03-16T13:05:33;2.13;;;0.70;;
22963;SDS011;11648;49.306;6.934;2023-03-16T13:08:08;1.50;;;0.90;;
22963;SDS011;11648;49.306;6.934;2023-03-16T13:10:38;1.93;;;0.90;;
22963;SDS011;11648;49.306;6.934;2023-03-16T13:13:09;1.90;;;0.90;;
22963;SDS011;11648;49.306;6.934;2023-03-16T13:15:41;2.70;;;0.90;;
22963;SDS011;11648;49.306;6.934;2023-03-16T13:20:49;1.97;;;0.90;;
22963;SDS011;11648;49.306;6.934;2023-03-16T13:23:26;2.23;;;0.93;;
22963;SDS011;11648;49.306;6.934;2023-03-16T13:25:59;1.80;;;1.00;;
22963;SDS011;11648;49.306;6.934;2023-03-16T13:28:43;1.77;;;0.90;;
22963;SDS011;11648;49.306;6.934;2023-03-16T13:34:04;1.93;;;0.90;;
22963;SDS011;11648;49.306;6.934;2023-03-16T13:36:33;2.37;;;0.90;;
22963;SDS011;11648;49.306;6.934;2023-03-16T13:41:53;1.80;;;1.00;;
22963;SDS011;11648;49.306;6.934;2023-03-16T13:44:25;2.03;;;0.90;;
22963;SDS011;11648;49.306;6.934;2023-03-16T13:46:53;2.70;;;1.00;;
22963;SDS011;11648;49.306;6.934;2023-03-16T13:49:21;2.50;;;0.90;;
22963;SDS011;11648;49.306;6.934;2023-03-16T13:51:48;1.60;;;0.90;;
22963;SDS011;11648;49.306;6.934;2023-03-16T13:54:22;2.63;;;1.00;;
22963;SDS011;11648;49.306;6.934;2023-03-16T13:56:56;2.77;;;1.00;;
22963;SDS011;11648;49.306;6.934;2023-03-16T13:59:24;2.77;;;1.03;;
22963;SDS011;11648;49.306;6.934;2023-03-16T14:01:55;2.77;;;1.00;;
22963;SDS011;11648;49.306;6.934;2023-03-16T14:04:24;2.47;;;1.00;;
22963;SDS011;11648;49.306;6.934;2023-03-16T14:06:55;2.40;;;1.00;;
22963;SDS011;11648;49.306;6.934;2023-03-16T14:09:27;3.17;;;1.10;;
22963;SDS011;11648;49.306;6.934;2023-03-16T14:11:58;3.37;;;1.10;;
22963;SDS011;11648;49.306;6.934;2023-03-16T14:14:30;3.53;;;1.50;;
22963;SDS011;11648;49.306;6.934;2023-03-16T14:17:07;2.43;;;0.97;;
22963;SDS011;11648;49.306;6.934;2023-03-16T14:19:46;2.43;;;1.10;;
22963;SDS011;11648;49.306;6.934;2023-03-16T14:22:39;1.53;;;0.80;;
22963;SDS011;11648;49.306;6.934;2023-03-16T14:25:05;1.70;;;0.87;;
22963;SDS011;11648;49.306;6.934;2023-03-16T14:30:21;2.73;;;0.87;;
22963;SDS011;11648;49.306;6.934;2023-03-16T14:35:24;2.43;;;0.90;;
22963;SDS011;11648;49.306;6.934;2023-03-16T14:38:17;2.00;;;1.00;;
22963;SDS011;11648;49.306;6.934;2023-03-16T14:40:51;2.30;;;0.87;;
22963;SDS011;11648;49.306;6.934;2023-03-16T14:43:20;1.67;;;0.77;;
22963;SDS011;11648;49.306;6.934;2023-03-16T14:45:57;2.07;;;0.90;;
22963;SDS011;11648;49.306;6.934;2023-03-16T14:48:24;1.87;;;0.80;;
22963;SDS011;11648;49.306;6.934;2023-03-16T14:50:52;2.03;;;0.73;;
22963;SDS011;11648;49.306;6.934;2023-03-16T14:53:21;1.80;;;0.93;;
22963;SDS011;11648;49.306;6.934;2023-03-16T14:55:49;4.37;;;1.00;;
22963;SDS011;11648;49.306;6.934;2023-03-16T14:58:17;1.93;;;0.87;;
22963;SDS011;11648;49.306;6.934;2023-03-16T15:00:44;2.10;;;0.90;;
22963;SDS011;11648;49.306;6.934;2023-03-16T15:03:19;1.93;;;0.77;;
22963;SDS011;11648;49.306;6.934;2023-03-16T15:05:49;2.00;;;0.93;;
22963;SDS011;11648;49.306;6.934;2023-03-16T15:08:18;1.73;;;0.83;;
22963;SDS011;11648;49.306;6.934;2023-03-16T15:10:57;2.03;;;0.90;;
22963;SDS011;11648;49.306;6.934;2023-03-16T15:13:27;1.87;;;0.80;;
22963;SDS011;11648;49.306;6.934;2023-03-16T15:16:01;1.53;;;0.73;;
22963;SDS011;11648;49.306;6.934;2023-03-16T15:18:30;1.93;;;0.80;;
22963;SDS011;11648;49.306;6.934;2023-03-16T15:20:59;2.47;;;1.00;;
22963;SDS011;11648;49.306;6.934;2023-03-16T15:23:27;1.27;;;0.70;;
22963;SDS011;11648;49.306;6.934;2023-03-16T15:25:56;1.73;;;0.90;;
22963;SDS011;11648;49.306;6.934;2023-03-16T15:28:25;2.47;;;0.80;;
22963;SDS011;11648;49.306;6.934;2023-03-16T15:30:54;2.33;;;1.00;;
22963;SDS011;11648;49.306;6.934;2023-03-16T15:33:23;3.23;;;0.70;;
22963;SDS011;11648;49.306;6.934;2023-03-16T15:35:51;1.97;;;0.80;;
22963;SDS011;11648;49.306;6.934;2023-03-16T15:40:59;3.20;;;0.60;;
22963;SDS011;11648;49.306;6.934;2023-03-16T15:43:27;1.93;;;0.80;;
22963;SDS011;11648;49.306;6.934;2023-03-16T15:45:55;2.17;;;0.80;;
22963;SDS011;11648;49.306;6.934;2023-03-16T15:48:24;1.20;;;0.60;;
22963;SDS011;11648;49.306;6.934;2023-03-16T15:53:57;1.97;;;0.90;;
22963;SDS011;11648;49.306;6.934;2023-03-16T15:56:28;2.20;;;0.90;;
22963;SDS011;11648;49.306;6.934;2023-03-16T15:59:13;2.30;;;0.93;;
22963;SDS011;11648;49.306;6.934;2023-03-16T16:01:43;3.57;;;1.10;;
22963;SDS011;11648;49.306;6.934;2023-03-16T16:04:14;2.03;;;0.93;;
22963;SDS011;11648;49.306;6.934;2023-03-16T16:06:44;2.67;;;1.10;;
22963;SDS011;11648;49.306;6.934;2023-03-16T16:09:12;1.47;;;0.80;;
22963;SDS011;11648;49.306;6.934;2023-03-16T16:11:39;2.10;;;0.87;;
22963;SDS011;11648;49.306;6.934;2023-03-16T16:14:18;2.57;;;1.00;;
22963;SDS011;11648;49.306;6.934;2023-03-16T16:16:48;1.90;;;0.93;;
22963;SDS011;11648;49.306;6.934;2023-03-16T16:19:15;2.00;;;1.00;;
22963;SDS011;11648;49.306;6.934;2023-03-16T16:21:44;2.80;;;1.30;;
22963;SDS011;11648;49.306;6.934;2023-03-16T16:24:11;2.30;;;1.00;;
22963;SDS011;11648;49.306;6.934;2023-03-16T16:26:42;2.40;;;1.20;;
22963;SDS011;11648;49.306;6.934;2023-03-16T16:29:20;4.07;;;1.20;;
22963;SDS011;11648;49.306;6.934;2023-03-16T16:31:49;2.00;;;1.07;;
22963;SDS011;11648;49.306;6.934;2023-03-16T16:34:20;2.70;;;1.33;;
22963;SDS011;11648;49.306;6.934;2023-03-16T16:36:49;3.03;;;1.50;;
22963;SDS011;11648;49.306;6.934;2023-03-16T16:39:16;3.30;;;1.40;;